Time;durP1;ratioP1;P1;durP2;ratioP2;P2;SDS_P1;SDS_P2;PMS_P1;PMS_P2;Temp;Humidity;BMP_temperature;BMP_pressure;BME280_temperature;BME280_humidity;BME280_pressure;Samples;Min_cycle;Max_cycle;Signal;HPM_P1;HPM_P2
2023/06/04 00:00:43;;;;;;;5.30;1.63;;;13.90;94.50;;;;;;5112892;28;20043;-57
2023/06/04 00:03:09;;;;;;;5.70;1.90;;;13.90;94.40;;;;;;5131644;28;20084;-58
2023/06/04 00:05:35;;;;;;;4.25;1.63;;;13.80;94.50;;;;;;5131334;28;20031;-58
2023/06/04 00:08:01;;;;;;;4.97;1.55;;;13.80;94.60;;;;;;5131777;28;20114;-58
2023/06/04 00:10:26;;;;;;;3.83;1.50;;;13.80;94.70;;;;;;5131686;28;20050;-57
2023/06/04 00:12:52;;;;;;;4.22;1.75;;;13.80;94.80;;;;;;5131289;28;20110;-58
2023/06/04 00:15:18;;;;;;;4.35;1.80;;;13.80;95.10;;;;;;5131830;28;20488;-58
2023/06/04 00:17:44;;;;;;;3.78;1.80;;;13.70;94.90;;;;;;5131506;28;20038;-57
2023/06/04 00:20:10;;;;;;;5.40;1.67;;;13.70;95.10;;;;;;5131425;28;20035;-57
2023/06/04 00:22:36;;;;;;;4.90;1.70;;;13.70;95.20;;;;;;5112977;28;20044;-59
2023/06/04 00:25:02;;;;;;;5.03;1.60;;;13.60;95.20;;;;;;5095309;28;20112;-57
2023/06/04 00:27:28;;;;;;;5.25;1.73;;;13.60;95.30;;;;;;5131155;28;20039;-58
2023/06/04 00:29:54;;;;;;;6.35;2.10;;;13.60;95.50;;;;;;5131259;28;20123;-58
2023/06/04 00:32:20;;;;;;;5.03;1.58;;;13.50;95.60;;;;;;5132924;27;20111;-59
2023/06/04 00:34:57;;;;;;;5.07;1.88;;;13.40;95.70;;;;;;5135146;27;20042;-58
2023/06/04 00:37:24;;;;;;;4.50;1.92;;;13.40;95.90;;;;;;5133211;27;20037;-58
2023/06/04 00:39:50;;;;;;;5.93;2.13;;;13.30;96.20;;;;;;5135128;27;20035;-58
2023/06/04 00:42:16;;;;;;;4.90;1.95;;;13.30;96.10;;;;;;5135220;27;20043;-56
2023/06/04 00:44:44;;;;;;;4.57;1.83;;;13.20;96.00;;;;;;5134637;27;20046;-57
2023/06/04 00:47:17;;;;;;;3.78;1.77;;;13.10;96.40;;;;;;5135008;27;20042;-58
2023/06/04 00:49:43;;;;;;;5.93;2.10;;;13.10;96.50;;;;;;5116545;27;20043;-60
2023/06/04 00:52:10;;;;;;;4.85;2.15;;;13.00;96.60;;;;;;5135055;27;20492;-58
2023/06/04 00:54:37;;;;;;;6.65;2.20;;;13.00;96.80;;;;;;5134548;27;20055;-60
2023/06/04 00:57:03;;;;;;;7.78;2.60;;;13.00;96.90;;;;;;5134883;27;20447;-59
2023/06/04 00:59:32;;;;;;;5.45;2.22;;;12.90;97.00;;;;;;5134816;27;20106;-59
2023/06/04 01:02:05;;;;;;;6.35;2.50;;;12.90;97.30;;;;;;5134559;27;20035;-58
2023/06/04 01:04:57;;;;;;;4.88;1.80;;;12.90;97.40;;;;;;5134890;27;20032;-58
2023/06/04 01:07:24;;;;;;;5.10;2.25;;;12.80;97.30;;;;;;5125934;27;20039;-58
2023/06/04 01:09:50;;;;;;;5.97;2.75;;;12.80;97.60;;;;;;5134595;27;20042;-58
2023/06/04 01:12:16;;;;;;;5.75;2.60;;;12.80;97.80;;;;;;5134552;27;20039;-59
2023/06/04 01:14:43;;;;;;;5.00;2.40;;;12.80;97.90;;;;;;5134584;27;20050;-59
2023/06/04 01:17:23;;;;;;;6.20;2.40;;;12.70;98.00;;;;;;5134255;27;20367;-58
2023/06/04 01:20:17;;;;;;;6.95;2.10;;;12.70;98.00;;;;;;5115966;27;20039;-57
2023/06/04 01:23:04;;;;;;;7.65;2.70;;;12.60;98.20;;;;;;5116277;27;20043;-57
2023/06/04 01:25:39;;;;;;;5.45;2.65;;;12.60;98.70;;;;;;5134437;27;20087;-58
2023/06/04 01:28:12;;;;;;;6.78;3.08;;;12.50;98.60;;;;;;5134305;27;20399;-58
2023/06/04 01:30:45;;;;;;;4.65;2.33;;;12.50;98.90;;;;;;5133843;27;20063;-58
2023/06/04 01:33:12;;;;;;;7.00;2.70;;;12.40;99.10;;;;;;5134098;27;20035;-57
2023/06/04 01:35:38;;;;;;;8.05;2.83;;;12.40;99.30;;;;;;5134283;27;20050;-58
2023/06/04 01:38:03;;;;;;;6.60;2.88;;;12.40;99.40;;;;;;5115261;27;20430;-59
2023/06/04 01:40:30;;;;;;;7.53;2.17;;;12.40;99.60;;;;;;5133997;27;20031;-58
2023/06/04 01:42:56;;;;;;;6.88;3.00;;;12.30;99.60;;;;;;5133749;27;20423;-57
2023/06/04 01:45:23;;;;;;;7.60;2.88;;;12.30;99.90;;;;;;5115489;27;20066;-59
2023/06/04 01:47:49;;;;;;;6.72;2.55;;;12.30;99.90;;;;;;5115248;27;20118;-57
2023/06/04 01:50:16;;;;;;;6.15;3.00;;;12.20;99.90;;;;;;5133822;27;20068;-58
2023/06/04 01:52:42;;;;;;;7.93;3.10;;;12.20;99.90;;;;;;5133362;27;20074;-59
2023/06/04 01:55:11;;;;;;;7.75;3.30;;;12.20;99.90;;;;;;5114913;27;20094;-58
2023/06/04 01:57:41;;;;;;;8.07;3.70;;;12.20;99.90;;;;;;5133787;27;20355;-58
2023/06/04 02:00:10;;;;;;;8.23;3.20;;;12.10;99.90;;;;;;5114516;27;20050;-57
2023/06/04 02:02:36;;;;;;;6.90;2.58;;;12.00;99.90;;;;;;5114907;27;20115;-58
2023/06/04 02:05:08;;;;;;;5.90;2.97;;;11.90;99.90;;;;;;5132259;27;20122;-57
2023/06/04 02:07:44;;;;;;;7.68;3.53;;;11.90;99.90;;;;;;5114838;27;20409;-58
2023/06/04 02:10:19;;;;;;;7.32;2.75;;;11.90;99.90;;;;;;5133637;27;20039;-57
2023/06/04 02:12:55;;;;;;;;;;;11.80;99.90;;;;;;5133686;27;20118;-58
2023/06/04 02:15:22;;;;;;;8.73;3.33;;;11.70;99.90;;;;;;5133485;27;20318;-57
2023/06/04 02:17:50;;;;;;;7.75;3.42;;;11.70;99.90;;;;;;5133309;27;20031;-57
2023/06/04 02:20:16;;;;;;;7.80;3.90;;;11.80;99.90;;;;;;5133504;27;20482;-57
2023/06/04 02:22:42;;;;;;;7.53;2.88;;;11.80;99.90;;;;;;5133066;27;20051;-58
2023/06/04 02:25:11;;;;;;;7.80;3.67;;;11.70;99.90;;;;;;5133222;27;20031;-56
2023/06/04 02:27:37;;;;;;;7.72;3.67;;;11.70;99.90;;;;;;5133073;27;20123;-57
2023/06/04 02:30:05;;;;;;;11.13;3.50;;;11.70;99.90;;;;;;5114316;27;20110;-58
2023/06/04 02:32:31;;;;;;;8.93;3.17;;;11.70;99.90;;;;;;5114248;27;20051;-58
2023/06/04 02:34:56;;;;;;;9.88;3.17;;;11.60;99.90;;;;;;5114432;27;20046;-57
2023/06/04 02:37:22;;;;;;;9.02;3.50;;;11.60;99.90;;;;;;5133090;27;20046;-58
2023/06/04 02:39:48;;;;;;;9.45;4.47;;;11.50;99.90;;;;;;5131881;27;20039;-57
2023/06/04 02:42:13;;;;;;;11.15;4.15;;;11.50;99.90;;;;;;5132729;27;20054;-58
2023/06/04 02:44:39;;;;;;;10.27;4.55;;;11.60;99.90;;;;;;5132631;27;20087;-57
2023/06/04 02:47:05;;;;;;;10.98;4.32;;;11.50;99.90;;;;;;5132568;27;20039;-57
2023/06/04 02:49:31;;;;;;;11.05;4.68;;;11.50;99.90;;;;;;5132673;27;20054;-56
2023/06/04 02:51:57;;;;;;;11.98;3.70;;;11.50;99.90;;;;;;5132683;27;20075;-58
2023/06/04 02:54:22;;;;;;;11.45;4.93;;;11.40;99.90;;;;;;5113088;28;20498;-57
2023/06/04 02:56:49;;;;;;;9.05;4.70;;;11.40;99.90;;;;;;5132549;27;20039;-56
2023/06/04 02:59:14;;;;;;;13.50;4.90;;;11.40;99.90;;;;;;5132404;27;20156;-59
2023/06/04 03:01:41;;;;;;;10.60;5.25;;;11.30;99.90;;;;;;5132064;27;20117;-57
2023/06/04 03:04:09;;;;;;;13.32;4.00;;;11.40;99.90;;;;;;5132418;27;20149;-58
2023/06/04 03:06:39;;;;;;;11.95;3.95;;;11.30;99.90;;;;;;5132113;27;20039;-57
2023/06/04 03:09:05;;;;;;;10.65;4.15;;;11.30;99.90;;;;;;5132280;27;20122;-57
2023/06/04 03:11:31;;;;;;;10.90;4.63;;;11.30;99.90;;;;;;5130975;27;20122;-58
2023/06/04 03:13:56;;;;;;;11.77;4.25;;;11.30;99.90;;;;;;5132066;27;20386;-58
2023/06/04 03:16:22;;;;;;;13.55;4.68;;;11.30;99.90;;;;;;5131911;27;20062;-57
2023/06/04 03:18:48;;;;;;;15.15;4.22;;;11.30;99.90;;;;;;5113675;27;20027;-57
2023/06/04 03:21:14;;;;;;;12.25;5.20;;;11.20;99.90;;;;;;5132093;27;20038;-58
2023/06/04 03:23:40;;;;;;;11.07;5.55;;;11.20;99.90;;;;;;5131898;27;20095;-57
2023/06/04 03:26:06;;;;;;;12.82;6.05;;;11.20;99.90;;;;;;5113822;27;20043;-59
2023/06/04 03:28:32;;;;;;;14.27;5.85;;;11.20;99.90;;;;;;5113086;27;20074;-58
2023/06/04 03:30:58;;;;;;;10.15;4.13;;;11.20;99.90;;;;;;5130989;27;20037;-59
2023/06/04 03:33:24;;;;;;;15.48;5.80;;;11.20;99.90;;;;;;5131948;27;20031;-57
2023/06/04 03:35:53;;;;;;;12.65;6.03;;;11.20;99.90;;;;;;5131896;27;20035;-58
2023/06/04 03:38:19;;;;;;;13.02;5.97;;;11.20;99.90;;;;;;5131727;27;20122;-57
2023/06/04 03:40:45;;;;;;;16.88;7.32;;;11.20;99.90;;;;;;5132113;27;20043;-57
2023/06/04 03:43:11;;;;;;;10.55;5.43;;;11.20;99.90;;;;;;5131990;27;20091;-57
2023/06/04 03:45:37;;;;;;;14.50;5.40;;;11.10;99.90;;;;;;5131960;28;20031;-58
2023/06/04 03:48:02;;;;;;;13.77;6.00;;;11.10;99.90;;;;;;5113388;28;20122;-58
2023/06/04 03:50:28;;;;;;;11.73;5.75;;;11.10;99.90;;;;;;5131479;28;20043;-57
2023/06/04 03:52:54;;;;;;;9.93;5.55;;;11.10;99.90;;;;;;5113061;28;20474;-58
2023/06/04 03:55:20;;;;;;;13.15;5.88;;;11.20;99.90;;;;;;5131443;28;20513;-57
2023/06/04 03:57:45;;;;;;;10.95;4.32;;;11.10;99.90;;;;;;5132019;28;20054;-57
2023/06/04 04:00:12;;;;;;;10.25;4.55;;;11.10;99.90;;;;;;5113077;28;20040;-58
2023/06/04 04:02:39;;;;;;;17.25;5.03;;;11.20;99.90;;;;;;5131927;28;20507;-57
2023/06/04 04:05:05;;;;;;;10.02;5.30;;;11.10;99.90;;;;;;5131576;28;20031;-58
2023/06/04 04:07:31;;;;;;;13.00;5.85;;;11.10;99.90;;;;;;5116637;27;20069;-58
2023/06/04 04:09:57;;;;;;;11.18;5.38;;;11.20;99.90;;;;;;5135730;27;20031;-57
2023/06/04 04:12:22;;;;;;;12.10;4.50;;;11.20;99.90;;;;;;5135627;27;20035;-58
2023/06/04 04:14:48;;;;;;;9.95;4.20;;;11.20;99.90;;;;;;5135841;27;20119;-57
2023/06/04 04:17:14;;;;;;;12.20;6.03;;;11.20;99.90;;;;;;5117052;27;20031;-58
2023/06/04 04:19:40;;;;;;;14.07;4.20;;;11.20;99.90;;;;;;5117468;27;20031;-58
2023/06/04 04:22:06;;;;;;;16.55;4.55;;;11.20;99.90;;;;;;5117177;27;20355;-58
2023/06/04 04:24:35;;;;;;;16.25;5.97;;;11.20;99.90;;;;;;5135714;27;20039;-57
2023/06/04 04:27:03;;;;;;;10.95;5.57;;;11.20;99.90;;;;;;5135468;27;20047;-57
2023/06/04 04:29:32;;;;;;;13.05;5.70;;;11.20;99.90;;;;;;5135315;27;20045;-57
2023/06/04 04:32:00;;;;;;;11.40;5.60;;;11.20;99.90;;;;;;5134913;27;20027;-57
2023/06/04 04:34:26;;;;;;;13.95;5.68;;;11.20;99.90;;;;;;5135165;27;20031;-58
2023/06/04 04:36:52;;;;;;;13.38;6.35;;;11.20;99.90;;;;;;5135345;27;20058;-59
2023/06/04 04:39:21;;;;;;;14.10;5.65;;;11.30;99.90;;;;;;5135388;27;20032;-57
2023/06/04 04:41:47;;;;;;;13.73;3.90;;;11.30;99.90;;;;;;5135096;27;20107;-57
2023/06/04 04:44:13;;;;;;;16.20;4.53;;;11.30;99.90;;;;;;5116798;27;20035;-57
2023/06/04 04:46:38;;;;;;;13.15;4.35;;;11.30;99.90;;;;;;5135163;27;20047;-56
2023/06/04 04:49:04;;;;;;;11.73;5.00;;;11.40;99.90;;;;;;5134897;27;20046;-56
2023/06/04 04:51:30;;;;;;;17.50;5.30;;;11.40;99.90;;;;;;5116166;27;20474;-58
2023/06/04 04:53:55;;;;;;;11.70;4.20;;;11.50;99.90;;;;;;5134926;27;20050;-57
2023/06/04 04:56:22;;;;;;;12.73;5.25;;;11.50;99.90;;;;;;5135164;27;20118;-58
2023/06/04 04:58:49;;;;;;;12.80;3.55;;;11.60;99.90;;;;;;5134776;27;20059;-58
2023/06/04 05:01:15;;;;;;;11.27;4.45;;;11.60;99.90;;;;;;5134230;27;20498;-58
2023/06/04 05:03:40;;;;;;;13.57;5.50;;;11.70;99.90;;;;;;5133461;27;20068;-59
2023/06/04 05:06:06;;;;;;;9.95;4.78;;;11.70;99.90;;;;;;5134832;27;20042;-58
2023/06/04 05:08:32;;;;;;;15.07;4.28;;;11.80;99.90;;;;;;5134703;27;20099;-57
2023/06/04 05:10:57;;;;;;;14.23;5.35;;;11.70;99.90;;;;;;5134730;27;20420;-58
2023/06/04 05:13:23;;;;;;;12.63;4.90;;;11.80;99.90;;;;;;5134642;27;20053;-58
2023/06/04 05:15:52;;;;;;;11.20;4.05;;;11.80;99.90;;;;;;5134501;27;20054;-57
2023/06/04 05:18:20;;;;;;;14.40;3.85;;;11.90;99.90;;;;;;5133768;27;20568;-57
2023/06/04 05:20:46;;;;;;;11.00;4.00;;;11.90;99.90;;;;;;5134561;27;20035;-58
2023/06/04 05:23:12;;;;;;;11.85;4.50;;;12.00;99.90;;;;;;5115804;27;20155;-58
2023/06/04 05:25:38;;;;;;;16.77;4.68;;;12.10;99.90;;;;;;5131698;27;20498;-59
2023/06/04 05:28:06;;;;;;;11.70;4.32;;;12.10;99.90;;;;;;5115055;27;20035;-58
2023/06/04 05:30:33;;;;;;;9.88;4.22;;;12.10;99.90;;;;;;5133401;27;20153;-57
2023/06/04 05:32:59;;;;;;;11.70;4.65;;;12.10;99.90;;;;;;5133015;27;20086;-58
2023/06/04 05:35:25;;;;;;;13.90;5.07;;;12.20;99.90;;;;;;5127724;27;20064;-59
2023/06/04 05:37:54;;;;;;;13.40;4.82;;;12.20;99.90;;;;;;5124215;27;20444;-58
2023/06/04 05:40:22;;;;;;;16.58;5.13;;;12.30;99.90;;;;;;5124755;27;20485;-57
2023/06/04 05:42:48;;;;;;;11.60;4.68;;;12.40;99.90;;;;;;5124448;27;20035;-58
2023/06/04 05:45:14;;;;;;;14.98;5.80;;;12.40;99.90;;;;;;5124976;27;20062;-58
2023/06/04 05:47:40;;;;;;;12.43;5.35;;;12.40;99.90;;;;;;5125298;27;20141;-59
2023/06/04 05:50:07;;;;;;;14.48;5.22;;;12.50;99.90;;;;;;5125008;27;20096;-59
2023/06/04 05:52:36;;;;;;;12.05;4.80;;;12.60;99.90;;;;;;5116176;27;20138;-57
2023/06/04 05:55:02;;;;;;;12.60;4.45;;;12.60;99.90;;;;;;5125089;27;20126;-57
2023/06/04 05:57:28;;;;;;;14.25;5.78;;;12.60;99.90;;;;;;5124705;27;20157;-58
2023/06/04 05:59:54;;;;;;;9.73;4.38;;;12.70;99.90;;;;;;5125035;27;20393;-58
2023/06/04 06:02:20;;;;;;;11.73;4.97;;;12.70;99.90;;;;;;5123997;27;20063;-58
2023/06/04 06:04:45;;;;;;;12.45;5.07;;;12.80;99.90;;;;;;5124505;27;20050;-56
2023/06/04 06:07:11;;;;;;;11.30;4.55;;;12.80;99.90;;;;;;5124388;27;20084;-57
2023/06/04 06:09:37;;;;;;;12.23;5.22;;;12.90;99.90;;;;;;5124437;27;20034;-59
2023/06/04 06:12:03;;;;;;;12.70;4.70;;;12.90;99.90;;;;;;5122886;27;20069;-57
2023/06/04 06:14:28;;;;;;;14.20;4.65;;;13.00;99.90;;;;;;5124631;27;20037;-57
2023/06/04 06:16:54;;;;;;;10.35;4.70;;;13.00;99.90;;;;;;5125042;27;20042;-57
2023/06/04 06:19:20;;;;;;;13.70;4.68;;;13.10;99.90;;;;;;5124728;27;20030;-58
2023/06/04 06:21:45;;;;;;;11.30;5.03;;;13.10;99.90;;;;;;5113827;27;20035;-59
2023/06/04 06:24:11;;;;;;;11.82;5.70;;;13.20;99.90;;;;;;5121514;27;20339;-57
2023/06/04 06:26:37;;;;;;;13.23;4.43;;;13.30;99.90;;;;;;5124025;27;20039;-58
2023/06/04 06:29:02;;;;;;;10.57;4.72;;;13.30;99.90;;;;;;5113060;27;20549;-58
2023/06/04 06:31:28;;;;;;;11.45;4.97;;;13.40;99.90;;;;;;5123239;27;20483;-59
2023/06/04 06:33:54;;;;;;;14.18;4.95;;;13.50;99.90;;;;;;5123413;27;20049;-59
2023/06/04 06:36:20;;;;;;;13.43;4.47;;;13.50;99.90;;;;;;5123006;27;20035;-58
2023/06/04 06:38:46;;;;;;;12.63;4.32;;;13.50;99.90;;;;;;5123635;27;20049;-57
2023/06/04 06:41:12;;;;;;;13.07;4.35;;;13.60;99.90;;;;;;5123139;27;20031;-58
2023/06/04 06:43:38;;;;;;;12.35;3.80;;;13.70;99.90;;;;;;5123173;27;20039;-59
2023/06/04 06:46:03;;;;;;;13.07;4.05;;;13.70;99.90;;;;;;5123581;27;20027;-58
2023/06/04 06:48:29;;;;;;;10.68;3.58;;;13.80;99.90;;;;;;5123553;27;20031;-57
2023/06/04 06:50:55;;;;;;;11.65;4.10;;;13.90;99.90;;;;;;5123607;27;20039;-58
2023/06/04 06:53:21;;;;;;;8.00;3.90;;;13.90;99.90;;;;;;5111934;27;20031;-58
2023/06/04 06:55:47;;;;;;;10.32;4.25;;;13.90;99.90;;;;;;5122750;27;20076;-58
2023/06/04 06:58:13;;;;;;;8.32;4.20;;;14.00;99.90;;;;;;5123991;27;20394;-60
2023/06/04 07:00:38;;;;;;;10.90;4.68;;;14.10;99.90;;;;;;5123131;27;20506;-60
2023/06/04 07:03:04;;;;;;;10.38;4.03;;;14.20;99.90;;;;;;5123876;27;20058;-58
2023/06/04 07:05:30;;;;;;;10.93;3.53;;;14.30;99.90;;;;;;5123048;27;20553;-60
2023/06/04 07:07:57;;;;;;;10.20;3.70;;;14.30;99.90;;;;;;5122446;27;20498;-59
2023/06/04 07:10:24;;;;;;;11.60;4.00;;;14.30;99.90;;;;;;5121968;27;20434;-59
2023/06/04 07:12:50;;;;;;;14.98;4.10;;;14.40;99.90;;;;;;5120043;27;22522;-59
2023/06/04 07:15:15;;;;;;;13.60;4.40;;;14.50;99.90;;;;;;5122808;27;20042;-58
2023/06/04 07:17:41;;;;;;;11.18;3.67;;;14.50;99.90;;;;;;5122599;27;20088;-59
2023/06/04 07:20:09;;;;;;;9.00;3.80;;;14.60;99.90;;;;;;5121727;27;20039;-59
2023/06/04 07:22:35;;;;;;;10.27;4.45;;;14.70;99.90;;;;;;5121537;27;20073;-58
2023/06/04 07:25:01;;;;;;;8.43;3.85;;;14.70;99.90;;;;;;5105555;27;20065;-58
2023/06/04 07:27:27;;;;;;;8.63;4.20;;;14.80;99.90;;;;;;5127064;27;20043;-57
2023/06/04 07:29:52;;;;;;;8.52;3.58;;;14.80;99.90;;;;;;5127191;27;20082;-58
2023/06/04 07:32:18;;;;;;;10.60;3.72;;;14.90;99.90;;;;;;5125140;27;20424;-59
2023/06/04 07:34:44;;;;;;;9.65;4.13;;;15.00;99.90;;;;;;5110949;27;20027;-59
2023/06/04 07:37:11;;;;;;;8.95;3.80;;;15.10;99.90;;;;;;5108021;27;20035;-59
2023/06/04 07:39:37;;;;;;;11.20;4.30;;;15.10;99.90;;;;;;5127975;27;20039;-56
2023/06/04 07:42:04;;;;;;;9.02;3.80;;;15.20;99.90;;;;;;5126821;27;20096;-58
2023/06/04 07:44:30;;;;;;;16.90;4.10;;;15.20;99.90;;;;;;5107378;27;20054;-58
2023/06/04 07:46:55;;;;;;;8.00;3.75;;;15.30;99.90;;;;;;5128096;28;20031;-59
2023/06/04 07:49:21;;;;;;;10.77;3.45;;;15.30;99.90;;;;;;5112018;28;20043;-57
2023/06/04 07:51:47;;;;;;;7.22;3.05;;;15.40;99.90;;;;;;5126753;28;20049;-58
2023/06/04 07:54:14;;;;;;;7.78;3.08;;;15.40;99.90;;;;;;5126739;28;20493;-59
2023/06/04 07:56:40;;;;;;;8.65;2.40;;;15.50;99.90;;;;;;5130748;28;20046;-58
2023/06/04 07:59:05;;;;;;;8.90;2.80;;;15.60;99.90;;;;;;5130982;28;20035;-58
2023/06/04 08:01:31;;;;;;;7.03;2.72;;;15.60;99.90;;;;;;5130807;28;20035;-59
2023/06/04 08:03:58;;;;;;;6.57;2.63;;;15.80;99.90;;;;;;5130570;28;20035;-59
2023/06/04 08:06:26;;;;;;;8.70;2.33;;;15.80;99.90;;;;;;5130699;28;20121;-59
2023/06/04 08:08:52;;;;;;;5.60;2.40;;;15.90;99.90;;;;;;5130975;28;20031;-58
2023/06/04 08:11:18;;;;;;;8.90;2.20;;;16.00;99.90;;;;;;5127676;28;20180;-58
2023/06/04 08:13:44;;;;;;;6.72;2.10;;;16.00;99.90;;;;;;5127792;28;20118;-57
2023/06/04 08:16:10;;;;;;;6.55;2.40;;;16.10;99.90;;;;;;5130424;28;20116;-58
2023/06/04 08:18:39;;;;;;;6.90;1.85;;;16.20;99.90;;;;;;5130428;28;20514;-58
2023/06/04 08:21:09;;;;;;;5.00;1.80;;;16.20;99.90;;;;;;5130406;28;20046;-59
2023/06/04 08:23:35;;;;;;;7.97;2.42;;;16.30;99.90;;;;;;5130268;28;20058;-59
2023/06/04 08:26:00;;;;;;;5.20;2.00;;;16.40;99.90;;;;;;5130905;28;20489;-58
2023/06/04 08:28:26;;;;;;;6.07;2.20;;;16.50;99.90;;;;;;5130631;28;20504;-58
2023/06/04 08:30:52;;;;;;;8.20;2.20;;;16.50;99.90;;;;;;5130486;28;20427;-58
2023/06/04 08:33:17;;;;;;;7.60;2.40;;;16.60;99.90;;;;;;5130627;28;20406;-58
2023/06/04 08:35:43;;;;;;;6.00;1.80;;;16.70;99.90;;;;;;5129532;28;20052;-58
2023/06/04 08:38:09;;;;;;;5.65;1.83;;;16.80;99.90;;;;;;5130987;28;20034;-60
2023/06/04 08:40:35;;;;;;;8.13;2.03;;;16.90;99.90;;;;;;5112234;28;20035;-59
2023/06/04 08:43:01;;;;;;;6.22;2.13;;;16.90;99.90;;;;;;5130660;28;20038;-57
2023/06/04 08:45:27;;;;;;;6.53;1.83;;;17.00;99.90;;;;;;5111721;28;20066;-58
2023/06/04 08:47:54;;;;;;;7.30;2.10;;;17.00;99.90;;;;;;5130832;28;20074;-58
2023/06/04 08:50:22;;;;;;;5.28;1.90;;;17.10;99.90;;;;;;5130652;28;20385;-58
2023/06/04 08:52:57;;;;;;;5.45;2.00;;;17.20;99.90;;;;;;5130803;27;20039;-59
2023/06/04 08:55:23;;;;;;;8.00;2.20;;;17.30;99.90;;;;;;5112068;28;20050;-59
2023/06/04 08:57:52;;;;;;;9.13;1.90;;;17.30;99.90;;;;;;5113499;27;20044;-58
2023/06/04 09:00:19;;;;;;;5.47;2.30;;;17.40;99.90;;;;;;5113234;28;20082;-59
2023/06/04 09:02:46;;;;;;;9.63;3.08;;;17.50;99.90;;;;;;5113956;28;20944;-58
2023/06/04 09:05:19;;;;;;;5.82;2.10;;;17.70;99.90;;;;;;5112671;28;20046;-59
2023/06/04 09:07:47;;;;;;;7.67;1.90;;;17.80;99.90;;;;;;5109745;28;20051;-60
2023/06/04 09:10:16;;;;;;;5.80;1.90;;;18.00;99.90;;;;;;5112380;28;20092;-58
2023/06/04 09:12:45;;;;;;;6.63;1.77;;;18.20;99.90;;;;;;5111242;27;20292;-59
2023/06/04 09:15:11;;;;;;;4.72;1.50;;;18.40;99.90;;;;;;5111736;28;20031;-58
2023/06/04 09:17:37;;;;;;;5.88;1.77;;;18.50;99.90;;;;;;5112500;28;20038;-58
2023/06/04 09:20:03;;;;;;;7.30;1.65;;;18.70;99.90;;;;;;5113686;27;20501;-58
2023/06/04 09:22:36;;;;;;;4.97;1.40;;;18.90;99.90;;;;;;5111875;28;20039;-57
2023/06/04 09:25:09;;;;;;;5.07;1.50;;;19.10;99.60;;;;;;5112762;27;20371;-58
2023/06/04 09:27:39;;;;;;;3.95;1.35;;;19.20;99.20;;;;;;5110460;28;20044;-58
2023/06/04 09:30:08;;;;;;;9.85;1.65;;;19.30;98.80;;;;;;5103372;28;20036;-58
2023/06/04 09:32:34;;;;;;;5.03;1.40;;;19.40;98.50;;;;;;5100473;28;20055;-58
2023/06/04 09:35:15;;;;;;;5.63;1.33;;;19.50;98.20;;;;;;5112810;27;20607;-58
2023/06/04 09:37:52;;;;;;;6.47;1.65;;;19.60;97.70;;;;;;5113006;27;20035;-57
2023/06/04 09:40:18;;;;;;;6.45;1.60;;;19.70;97.40;;;;;;5116285;27;20535;-59
2023/06/04 09:42:53;;;;;;;7.82;1.52;;;19.70;97.60;;;;;;5113413;27;20067;-58
2023/06/04 09:45:32;;;;;;;4.90;1.80;;;19.80;97.10;;;;;;5109048;27;20043;-58
2023/06/04 09:47:59;;;;;;;5.47;1.67;;;19.80;96.80;;;;;;5112929;27;20213;-58
2023/06/04 09:50:30;;;;;;;4.68;1.58;;;19.90;97.30;;;;;;5114661;27;20038;-58
2023/06/04 09:52:56;;;;;;;5.10;1.60;;;20.00;97.00;;;;;;5116881;27;20508;-58
2023/06/04 09:55:22;;;;;;;5.07;1.42;;;20.10;96.70;;;;;;5114538;27;20062;-57
2023/06/04 09:57:49;;;;;;;3.25;1.10;;;20.30;96.50;;;;;;5114693;27;20162;-58
2023/06/04 10:00:22;;;;;;;3.92;1.23;;;20.30;96.20;;;;;;5116525;27;20027;-58
2023/06/04 10:02:50;;;;;;;4.85;1.35;;;20.40;96.00;;;;;;5113562;27;20070;-58
2023/06/04 10:05:16;;;;;;;6.03;1.60;;;20.40;95.70;;;;;;5109552;28;20118;-57
2023/06/04 10:07:46;;;;;;;5.60;1.70;;;20.40;95.40;;;;;;5110409;28;20048;-57
2023/06/04 10:10:17;;;;;;;6.57;1.60;;;20.40;95.30;;;;;;5110868;28;20035;-57
2023/06/04 10:12:44;;;;;;;5.45;1.45;;;20.50;95.40;;;;;;5110138;28;20130;-58
2023/06/04 10:15:13;;;;;;;6.10;1.50;;;20.50;95.50;;;;;;5109740;28;20042;-59
2023/06/04 10:17:40;;;;;;;4.22;1.20;;;20.60;94.70;;;;;;5111078;28;20038;-59
2023/06/04 10:20:10;;;;;;;7.00;1.77;;;20.50;94.60;;;;;;5109094;28;20499;-60
2023/06/04 10:22:37;;;;;;;6.05;1.55;;;20.60;94.70;;;;;;5111005;28;20040;-60
2023/06/04 10:25:03;;;;;;;5.57;1.45;;;20.60;94.60;;;;;;5109486;27;20154;-58
2023/06/04 10:27:31;;;;;;;5.00;1.33;;;20.70;94.70;;;;;;5107449;28;20047;-59
2023/06/04 10:29:58;;;;;;;6.20;1.30;;;20.70;94.30;;;;;;5110486;28;20031;-58
2023/06/04 10:32:28;;;;;;;3.97;1.20;;;20.70;94.30;;;;;;5111921;27;20134;-59
2023/06/04 10:34:54;;;;;;;3.92;1.10;;;20.80;94.40;;;;;;5110523;28;20043;-58
2023/06/04 10:37:26;;;;;;;3.67;1.23;;;20.90;94.20;;;;;;5110733;28;20047;-59
2023/06/04 10:39:56;;;;;;;4.07;1.20;;;21.10;93.80;;;;;;5110495;28;20074;-59
2023/06/04 10:42:24;;;;;;;4.85;1.30;;;21.20;93.30;;;;;;5110960;28;20415;-59
2023/06/04 10:44:51;;;;;;;5.38;1.20;;;21.20;93.30;;;;;;5110771;28;20040;-59
2023/06/04 10:47:25;;;;;;;3.75;1.30;;;21.30;93.30;;;;;;5109856;28;20071;-58
2023/06/04 10:49:52;;;;;;;4.63;1.35;;;21.30;93.10;;;;;;5109730;28;20046;-59
2023/06/04 10:52:18;;;;;;;5.60;1.25;;;21.40;93.40;;;;;;5107185;28;20035;-59
2023/06/04 10:54:48;;;;;;;5.93;1.20;;;21.50;93.10;;;;;;5118112;27;20063;-59
2023/06/04 10:57:17;;;;;;;4.18;1.20;;;21.60;93.10;;;;;;5121495;27;20039;-59
2023/06/04 11:00:00;;;;;;;7.15;1.50;;;21.60;93.10;;;;;;5127548;27;20051;-59
2023/06/04 11:02:27;;;;;;;4.63;1.60;;;21.70;93.20;;;;;;5122894;27;20039;-58
2023/06/04 11:05:08;;;;;;;5.53;1.30;;;21.80;93.20;;;;;;5121442;27;20039;-59
2023/06/04 11:07:44;;;;;;;5.13;1.60;;;22.00;93.20;;;;;;5126263;27;20051;-58
2023/06/04 11:10:15;;;;;;;5.05;1.35;;;22.10;92.90;;;;;;5105162;27;20039;-60
2023/06/04 11:12:46;;;;;;;4.22;1.20;;;22.10;93.00;;;;;;5104783;27;20070;-58
2023/06/04 11:15:12;;;;;;;4.30;1.33;;;22.20;92.30;;;;;;5128439;27;20138;-59
2023/06/04 11:17:38;;;;;;;7.32;1.80;;;22.30;92.60;;;;;;5106724;27;20043;-60
2023/06/04 11:20:06;;;;;;;5.15;1.38;;;22.30;92.40;;;;;;5124708;27;20035;-60
2023/06/04 11:22:33;;;;;;;5.25;1.50;;;22.30;92.10;;;;;;5130108;27;20450;-60
2023/06/04 11:24:59;;;;;;;6.30;1.50;;;22.30;92.10;;;;;;5131171;27;20149;-59
2023/06/04 11:27:25;;;;;;;3.92;1.40;;;22.30;92.00;;;;;;5131833;27;20070;-59
2023/06/04 11:29:52;;;;;;;3.13;1.08;;;22.30;92.00;;;;;;5131896;27;20097;-59
2023/06/04 11:32:22;;;;;;;4.07;1.30;;;22.40;92.10;;;;;;5112438;27;20046;-58
2023/06/04 11:34:48;;;;;;;5.40;1.35;;;22.60;92.40;;;;;;5130337;27;20039;-59
2023/06/04 11:37:13;;;;;;;5.47;1.33;;;22.90;92.20;;;;;;5131381;27;20038;-59
2023/06/04 11:39:40;;;;;;;3.38;1.10;;;23.00;91.80;;;;;;5131647;27;20470;-59
2023/06/04 11:42:07;;;;;;;4.75;1.23;;;23.10;91.60;;;;;;5131282;27;20054;-59
2023/06/04 11:44:33;;;;;;;4.57;1.20;;;23.10;91.20;;;;;;5131686;27;20046;-59
2023/06/04 11:46:59;;;;;;;5.40;1.67;;;23.20;90.90;;;;;;5131475;27;20486;-59
2023/06/04 11:49:26;;;;;;;6.55;1.70;;;23.10;90.40;;;;;;5131378;28;20050;-59
2023/06/04 11:51:52;;;;;;;4.28;1.30;;;23.00;91.10;;;;;;5131922;28;20092;-59
2023/06/04 11:54:20;;;;;;;5.25;1.90;;;23.20;91.40;;;;;;5131111;28;20049;-59
2023/06/04 11:56:49;;;;;;;4.45;1.20;;;23.40;91.00;;;;;;5131310;28;20047;-58
2023/06/04 11:59:16;;;;;;;4.03;1.42;;;23.50;90.40;;;;;;5131303;28;20110;-58
2023/06/04 12:01:43;;;;;;;2.95;0.98;;;23.50;89.90;;;;;;5131150;28;20043;-59
2023/06/04 12:04:16;;;;;;;4.57;1.30;;;23.50;90.40;;;;;;5131411;28;20327;-58
2023/06/04 12:06:53;;;;;;;6.00;1.40;;;23.60;90.20;;;;;;5131156;28;20023;-58
2023/06/04 12:09:23;;;;;;;5.15;1.27;;;23.70;90.10;;;;;;5131200;28;20766;-58
2023/06/04 12:11:49;;;;;;;4.32;1.30;;;23.90;90.10;;;;;;5131261;28;20113;-58
2023/06/04 12:14:18;;;;;;;4.90;1.30;;;24.00;89.70;;;;;;5131423;28;20036;-59
2023/06/04 12:17:01;;;;;;;4.85;1.20;;;24.10;89.20;;;;;;5130043;28;20047;-58
2023/06/04 12:19:27;;;;;;;4.75;1.17;;;24.20;88.30;;;;;;5110273;28;20035;-58
2023/06/04 12:22:04;;;;;;;5.65;1.38;;;24.30;88.50;;;;;;5130549;28;20039;-58
2023/06/04 12:24:45;;;;;;;6.43;1.38;;;24.30;87.60;;;;;;5128165;28;20046;-57
2023/06/04 12:27:11;;;;;;;4.05;1.35;;;24.40;87.40;;;;;;5124167;27;20042;-59
2023/06/04 12:29:37;;;;;;;4.40;1.30;;;24.50;87.10;;;;;;5121774;27;20043;-58
2023/06/04 12:32:13;;;;;;;4.38;1.20;;;24.60;86.80;;;;;;5125935;27;20409;-59
2023/06/04 12:34:41;;;;;;;7.22;1.35;;;24.60;84.90;;;;;;5122219;27;20050;-58
2023/06/04 12:37:07;;;;;;;3.95;1.15;;;24.70;85.50;;;;;;5126453;27;20066;-58
2023/06/04 12:39:36;;;;;;;5.80;1.40;;;24.60;85.80;;;;;;5127730;27;20031;-58
2023/06/04 12:42:02;;;;;;;6.85;1.52;;;24.60;86.30;;;;;;5125202;27;20047;-58
2023/06/04 12:44:28;;;;;;;4.85;1.25;;;24.80;86.30;;;;;;5130341;27;20500;-58